London, Arkansas
Current Conditions -  °F | °C
As of 4:13 PM on Monday 22 Dec 2014 (Local Time) from KRUE Reporting Station
Haze Haze  
Wind Chill: 53°   Ceiling: 1000
Heat Index: 53°   Visibility: 6mi
Dew Point: 51°   Wind: 0mph
Humidity: 93%   Direction: NA
Pressure: 29.56"   Gusts: NA
Location:  35.33°N, 93.25°W
Report Text: KRUE 222213Z AUTO 00000KT 6SM BR FEW006 OVC010 12/11 A2956 RMK AO2 CIG 008V014 T01170106
Loading
Personal Weather Stations






























Interactive Weather Map New forecast layout! Learn more

10-Day Weather Forecast

Advertisements
Track Severe Weather on mobile